Clipper Saga — LAFY6 — position and weather

sailwx.info

Track history (hours):
 
Tides and Currents Weather Stations Pressure Air Temp Water Temp Dewpoint Dewpoint Depression Visibility Wind Speed Wind Dir Waves Ship Positions

Clipper Saga

Last reported at 2014-Jul-28 05:30 UTC. Time now 2014-Jul-28 18:33 UTC.
Position N 53°58' E 004°49'.

Length 89 m; draft 5.9 m.

Type: Ship (hazmat cat C). MMSI: 246657008.

Date/timePositionNaut miles runAvg speedWind from/ knotsBaromVisibWave heightAir tempDewpointWater temp
2014-Jul-28 05:30N 53°58' E 004°49'9012.3
2014-Jul-27 22:08N 55°16' E 006°05'712.3
2014-Jul-27 21:33N 55°22' E 006°12'1212.3
2014-Jul-27 20:32N 55°33' E 006°24'  
2014-Jul-24 16:33N 58°57' E 009°48'10 9.7
2014-Jul-24 15:33N 58°47' E 009°50'6 5.8
2014-Jul-24 14:33N 58°44' E 009°60'6 5.7
2014-Jul-24 13:33N 58°40' E 010°08'6 6.4
2014-Jul-24 12:33N 58°37' E 010°18'5 4.7
2014-Jul-24 11:33N 58°36' E 010°09'7 7.2
2014-Jul-24 10:33N 58°35' E 009°55'2 1.9
2014-Jul-24 09:33N 58°34' E 009°57'7 7.1
2014-Jul-24 08:33N 58°34' E 010°11'8 8.3
2014-Jul-24 07:33N 58°33' E 010°27'9 9.2
2014-Jul-24 06:33N 58°42' E 010°28'1010.0
2014-Jul-24 05:33N 58°52' E 010°32'1211.6
2014-Jul-24 04:33N 59°01' E 010°45'9 8.7
2014-Jul-24 03:33N 59°07' E 010°58'9 9.3
2014-Jul-24 02:33N 59°16' E 011°03'2 1.6
2014-Jul-24 01:23N 59°16' E 011°06'0 0.0
2014-Jul-24 00:26N 59°16' E 011°06'0 0.0
2014-Jul-23 23:23N 59°16' E 011°06'0 0.0
2014-Jul-22 07:33N 59°16' E 011°06'6 6.1
2014-Jul-22 06:33N 59°12' E 010°57'1010.2
2014-Jul-22 05:33N 59°02' E 010°58'8 7.8
2014-Jul-22 04:33N 59°01' E 010°43'1010.4
2014-Jul-22 03:33N 58°53' E 010°30'1010.5
2014-Jul-22 02:33N 58°45' E 010°18'1110.7
2014-Jul-22 01:29N 58°35' E 010°06'1010.3
2014-Jul-22 00:32N 58°28' E 009°54'1110.5
2014-Jul-21 23:31N 58°19' E 009°42'28411.8
2014-Jul-20 23:33N 54°20' E 005°06'1211.7
2014-Jul-20 22:33N 54°10' E 004°56'1111.4
2014-Jul-20 21:33N 53°59' E 004°54'1111.2
2014-Jul-20 20:33N 53°48' E 004°52'1110.9
2014-Jul-20 19:33N 53°37' E 004°51'1110.7
2014-Jul-20 18:33N 53°27' E 004°43'1110.9
2014-Jul-20 17:31N 53°16' E 004°36'1110.8
2014-Jul-20 16:33N 53°07' E 004°28'1110.7
2014-Jul-20 15:33N 52°58' E 004°19'1110.9
2014-Jul-20 14:33N 52°48' E 004°11'1110.8
2014-Jul-20 13:32N 52°40' E 003°60'1110.9
2014-Jul-20 12:33N 52°29' E 003°54'1111.6
2014-Jul-20 11:33N 52°18' E 003°52'1212.1
2014-Jul-20 10:33N 52°06' E 003°55'10 9.7
2014-Jul-20 09:33N 51°59' E 004°06'9 9.3
2014-Jul-20 08:33N 51°53' E 004°18'1 1.2
2014-Jul-20 07:31N 51°52' E 004°16'0 0.0
2014-Jul-20 06:28N 51°52' E 004°16'0 0.0
2014-Jul-20 05:19N 51°52' E 004°16'0 0.0
2014-Jul-20 04:28N 51°52' E 004°16'0 0.0
2014-Jul-20 03:31N 51°52' E 004°16'0 0.0
2014-Jul-20 02:31N 51°52' E 004°16'0 0.0
2014-Jul-20 01:25N 51°52' E 004°16'0 0.0
2014-Jul-20 00:31N 51°52' E 004°16'0 0.0
2014-Jul-19 23:28N 51°52' E 004°16'0 0.0
2014-Jul-19 22:28N 51°52' E 004°16'0 0.0
2014-Jul-19 21:22N 51°52' E 004°16'0 0.0
2014-Jul-19 20:31N 51°52' E 004°16'0 0.0
2014-Jul-19 19:25N 51°52' E 004°16'0 0.0
2014-Jul-19 18:28N 51°52' E 004°16'0 0.0
2014-Jul-19 17:25N 51°52' E 004°16'0 0.0
2014-Jul-19 16:25N 51°52' E 004°16'0 0.0
2014-Jul-19 15:31N 51°52' E 004°16'0 0.0
2014-Jul-19 14:28N 51°52' E 004°16'0 0.0
2014-Jul-19 13:31N 51°52' E 004°16'0 0.0
2014-Jul-19 12:31N 51°52' E 004°16'0 0.0
2014-Jul-19 11:31N 51°52' E 004°16'1 0.6
2014-Jul-19 10:33N 51°53' E 004°17'7 6.9
2014-Jul-19 09:33N 51°58' E 004°09'1212.3
2014-Jul-19 08:33N 51°60' E 003°49'39 9.5
2014-Jul-19 04:24N 51°51' E 002°46'910.2
2014-Jul-19 03:33N 51°57' E 002°36'10 9.5
2014-Jul-19 02:33N 52°06' E 002°34'1110.1
2014-Jul-19 01:31N 52°17' E 002°36'30 9.9
2014-Jul-18 22:30N 52°46' E 002°41'9 9.9
2014-Jul-18 21:33N 52°56' E 002°40'1010.4
2014-Jul-18 20:33N 53°04' E 002°31'1010.0
2014-Jul-18 19:33N 53°13' E 002°23'1010.0
2014-Jul-18 18:33N 53°20' E 002°10'10 9.8
2014-Jul-18 17:33N 53°25' E 001°56'1010.6
2014-Jul-18 16:33N 53°27' E 001°39'1210.6
2014-Jul-18 15:25N 53°31' E 001°20'910.5
2014-Jul-18 14:33N 53°34' E 001°05'1110.7
2014-Jul-18 13:33N 53°34' E 000°47'1211.7
2014-Jul-18 12:33N 53°32' E 000°27'1110.8
2014-Jul-18 11:33N 53°33' E 000°10'1312.8
2014-Jul-18 10:33N 53°38' W 000°10'6 5.2
2014-Jul-18 09:23N 53°44' W 000°15'0 0.0
2014-Jul-18 08:26N 53°44' W 000°15'0 0.0
2014-Jul-18 07:23N 53°44' W 000°15'  
Track history (hours):
 
Tides and Currents Weather Stations Pressure Air Temp Water Temp Dewpoint Dewpoint Depression Visibility Wind Speed Wind Dir Waves Ship Positions

Clipper Saga

Last reported at 2014-Jul-28 05:30 UTC. Time now 2014-Jul-28 18:33 UTC.
Position N 53°58' E 004°49'.

Length 89 m; draft 5.9 m.

Type: Ship (hazmat cat C). MMSI: 246657008.

Date/timePositionNaut miles runAvg speedWind from/ knotsBaromVisibWave heightAir tempDewpointWater temp
2014-Jul-28 05:30N 53°58' E 004°49'9012.3
2014-Jul-27 22:08N 55°16' E 006°05'712.3
2014-Jul-27 21:33N 55°22' E 006°12'1212.3
2014-Jul-27 20:32N 55°33' E 006°24'  
2014-Jul-24 16:33N 58°57' E 009°48'10 9.7
2014-Jul-24 15:33N 58°47' E 009°50'6 5.8
2014-Jul-24 14:33N 58°44' E 009°60'6 5.7
2014-Jul-24 13:33N 58°40' E 010°08'6 6.4
2014-Jul-24 12:33N 58°37' E 010°18'5 4.7
2014-Jul-24 11:33N 58°36' E 010°09'7 7.2
2014-Jul-24 10:33N 58°35' E 009°55'2 1.9
2014-Jul-24 09:33N 58°34' E 009°57'7 7.1
2014-Jul-24 08:33N 58°34' E 010°11'8 8.3
2014-Jul-24 07:33N 58°33' E 010°27'9 9.2
2014-Jul-24 06:33N 58°42' E 010°28'1010.0
2014-Jul-24 05:33N 58°52' E 010°32'1211.6
2014-Jul-24 04:33N 59°01' E 010°45'9 8.7
2014-Jul-24 03:33N 59°07' E 010°58'9 9.3
2014-Jul-24 02:33N 59°16' E 011°03'2 1.6
2014-Jul-24 01:23N 59°16' E 011°06'0 0.0
2014-Jul-24 00:26N 59°16' E 011°06'0 0.0
2014-Jul-23 23:23N 59°16' E 011°06'0 0.0
2014-Jul-22 07:33N 59°16' E 011°06'6 6.1
2014-Jul-22 06:33N 59°12' E 010°57'1010.2
2014-Jul-22 05:33N 59°02' E 010°58'8 7.8
2014-Jul-22 04:33N 59°01' E 010°43'1010.4
2014-Jul-22 03:33N 58°53' E 010°30'1010.5
2014-Jul-22 02:33N 58°45' E 010°18'1110.7
2014-Jul-22 01:29N 58°35' E 010°06'1010.3
2014-Jul-22 00:32N 58°28' E 009°54'1110.5
2014-Jul-21 23:31N 58°19' E 009°42'28411.8
2014-Jul-20 23:33N 54°20' E 005°06'1211.7
2014-Jul-20 22:33N 54°10' E 004°56'1111.4
2014-Jul-20 21:33N 53°59' E 004°54'1111.2
2014-Jul-20 20:33N 53°48' E 004°52'1110.9
2014-Jul-20 19:33N 53°37' E 004°51'1110.7
2014-Jul-20 18:33N 53°27' E 004°43'1110.9
2014-Jul-20 17:31N 53°16' E 004°36'1110.8
2014-Jul-20 16:33N 53°07' E 004°28'1110.7
2014-Jul-20 15:33N 52°58' E 004°19'1110.9
2014-Jul-20 14:33N 52°48' E 004°11'1110.8
2014-Jul-20 13:32N 52°40' E 003°60'1110.9
2014-Jul-20 12:33N 52°29' E 003°54'1111.6
2014-Jul-20 11:33N 52°18' E 003°52'1212.1
2014-Jul-20 10:33N 52°06' E 003°55'10 9.7
2014-Jul-20 09:33N 51°59' E 004°06'9 9.3
2014-Jul-20 08:33N 51°53' E 004°18'1 1.2
2014-Jul-20 07:31N 51°52' E 004°16'0 0.0
2014-Jul-20 06:28N 51°52' E 004°16'0 0.0
2014-Jul-20 05:19N 51°52' E 004°16'0 0.0
2014-Jul-20 04:28N 51°52' E 004°16'0 0.0
2014-Jul-20 03:31N 51°52' E 004°16'0 0.0
2014-Jul-20 02:31N 51°52' E 004°16'0 0.0
2014-Jul-20 01:25N 51°52' E 004°16'0 0.0
2014-Jul-20 00:31N 51°52' E 004°16'0 0.0
2014-Jul-19 23:28N 51°52' E 004°16'0 0.0
2014-Jul-19 22:28N 51°52' E 004°16'0 0.0
2014-Jul-19 21:22N 51°52' E 004°16'0 0.0
2014-Jul-19 20:31N 51°52' E 004°16'0 0.0
2014-Jul-19 19:25N 51°52' E 004°16'0 0.0
2014-Jul-19 18:28N 51°52' E 004°16'0 0.0
2014-Jul-19 17:25N 51°52' E 004°16'0 0.0
2014-Jul-19 16:25N 51°52' E 004°16'0 0.0
2014-Jul-19 15:31N 51°52' E 004°16'0 0.0
2014-Jul-19 14:28N 51°52' E 004°16'0 0.0
2014-Jul-19 13:31N 51°52' E 004°16'0 0.0
2014-Jul-19 12:31N 51°52' E 004°16'0 0.0
2014-Jul-19 11:31N 51°52' E 004°16'1 0.6
2014-Jul-19 10:33N 51°53' E 004°17'7 6.9
2014-Jul-19 09:33N 51°58' E 004°09'1212.3
2014-Jul-19 08:33N 51°60' E 003°49'39 9.5
2014-Jul-19 04:24N 51°51' E 002°46'910.2
2014-Jul-19 03:33N 51°57' E 002°36'10 9.5
2014-Jul-19 02:33N 52°06' E 002°34'1110.1
2014-Jul-19 01:31N 52°17' E 002°36'30 9.9
2014-Jul-18 22:30N 52°46' E 002°41'9 9.9
2014-Jul-18 21:33N 52°56' E 002°40'1010.4
2014-Jul-18 20:33N 53°04' E 002°31'1010.0
2014-Jul-18 19:33N 53°13' E 002°23'1010.0
2014-Jul-18 18:33N 53°20' E 002°10'10 9.8
2014-Jul-18 17:33N 53°25' E 001°56'1010.6
2014-Jul-18 16:33N 53°27' E 001°39'1210.6
2014-Jul-18 15:25N 53°31' E 001°20'910.5
2014-Jul-18 14:33N 53°34' E 001°05'1110.7
2014-Jul-18 13:33N 53°34' E 000°47'1211.7
2014-Jul-18 12:33N 53°32' E 000°27'1110.8
2014-Jul-18 11:33N 53°33' E 000°10'1312.8
2014-Jul-18 10:33N 53°38' W 000°10'6 5.2
2014-Jul-18 09:23N 53°44' W 000°15'0 0.0
2014-Jul-18 08:26N 53°44' W 000°15'0 0.0
2014-Jul-18 07:23N 53°44' W 000°15'  

Dump ship's entire track history